23 mei 2022

Tijd Code Weer Temp. Zicht Wolken Wind METAR/SPECI
11:00
V
18 °C 14 km - 280°   280° 7 kt METAR CZVL 231700Z AUTO 28007KT 230V330 9SM CLR 18/M03 A2988 RMK SLP127 DENSITY ALT 3300FT
10:00
V
17 °C 14 km - 290°   290° 7 kt METAR CZVL 231600Z AUTO 29007KT 9SM CLR 17/M03 A2989 RMK SLP132 DENSITY ALT 3100FT
09:00
V
15 °C 14 km - 290°   290° 4 kt METAR CZVL 231500Z AUTO 29004KT 250V320 9SM CLR 15/M03 A2990 RMK SLP133 DENSITY ALT 2800FT
08:00
V
12 °C 14 km - Var   000° 0 kt METAR CZVL 231400Z AUTO 00000KT 9SM CLR 12/M01 A2991 RMK SLP137 DENSITY ALT 2500FT
07:00
V
9 °C 14 km - Var   Var 2 kt METAR CZVL 231300Z AUTO VRB02KT 9SM CLR 09/M02 A2991 RMK SLP140
06:00
V
8 °C 14 km - Var   Var 2 kt METAR CZVL 231200Z AUTO VRB02KT 9SM CLR 08/M03 A2991 RMK SLP138
05:00
V
10 °C 14 km - 270°   270° 9 kt METAR CZVL 231100Z AUTO 27009KT 9SM CLR 10/M04 A2990 RMK SLP133 DENSITY ALT 2300FT
04:00
V
10 °C 14 km - 270°   270° 7 kt METAR CZVL 231000Z AUTO 27007KT 240V300 9SM CLR 10/M03 A2991 RMK SLP136 DENSITY ALT 2300FT
03:00
V
9 °C 14 km - 250°   250° 6 kt METAR CZVL 230900Z AUTO 25006KT 9SM CLR 09/M02 A2991 RMK SLP138
02:00
V
9 °C 14 km - 220°   220° 8 kt METAR CZVL 230800Z AUTO 22008KT 9SM CLR 09/M01 A2992 RMK SLP141
01:00
V
11 °C 14 km - 220°   220° 9 kt METAR CZVL 230700Z AUTO 22009KT 9SM CLR 11/M02 A2993 RMK SLP144 DENSITY ALT 2300FT
00:00
V
11 °C 14 km 11.000 ft 210°   210° 7 kt METAR CZVL 230600Z AUTO 21007KT 9SM BKN110 11/M01 A2994 RMK SLP148 DENSITY ALT 2300FT

22 mei 2022

Tijd Code Weer Temp. Zicht Wolken Wind METAR/SPECI
23:00
V
8 °C 14 km - 180°   180° 3 kt METAR CZVL 230500Z AUTO 18003KT 9SM FEW110 08/M00 A2995 RMK SLP154
22:00
V
9 °C 14 km - 220°   220° 5 kt METAR CZVL 230400Z AUTO 22005KT 9SM CLR 09/M00 A2995 RMK SLP155
21:00
V
15 °C 14 km - 220°   220° 4 kt METAR CZVL 230300Z AUTO 22004KT 9SM CLR 15/M01 A2994 RMK SLP149 DENSITY ALT 2700FT
20:00
V
16 °C 14 km - 310°   310° 5 kt METAR CZVL 230200Z AUTO 31005KT 280V360 9SM CLR 16/M02 A2995 RMK SLP152 DENSITY ALT 2900FT
19:00
V
16 °C 14 km - 290°   290° 10 18 kt METAR CZVL 230100Z AUTO 29010G18KT 230V310 9SM CLR 16/M03 A2996 RMK SLP159 DENSITY ALT 2900FT
18:00
V
18 °C 14 km - 290°   290° 14 kt METAR CZVL 230000Z AUTO 29014KT 9SM FEW100 SCT150 18/M04 A2995 RMK SLP156 DENSITY ALT 3100FT
17:00
V
19 °C 14 km - 270°   270° 10 15 kt METAR CZVL 222300Z AUTO 27010G15KT 9SM CLR 19/M05 A2996 RMK SLP156 DENSITY ALT 3200FT
16:00
V
17 °C 14 km - 310°   310° 10 24 kt METAR CZVL 222200Z AUTO 31010G24KT 280V350 9SM FEW096 17/M05 A2997 RMK SLP161 DENSITY ALT 3000FT
15:00
V
19 °C 14 km - 300°   300° 14 19 kt METAR CZVL 222100Z AUTO 30014G19KT 250V340 9SM FEW110 19/M04 A2997 RMK SLP162 DENSITY ALT 3200FT
14:00
V
17 °C 14 km - 320°   320° 13 19 kt METAR CZVL 222000Z AUTO 32013G19KT 240V340 9SM CLR 17/M05 A2999 RMK SLP168 DENSITY ALT 3000FT
13:00
V
17 °C 14 km - 310°   310° 9 19 kt METAR CZVL 221900Z AUTO 31009G19KT 9SM CLR 17/M04 A3000 RMK SLP170 DENSITY ALT 3000FT
12:00
V
16 °C 14 km - 280°   280° 12 17 kt METAR CZVL 221800Z AUTO 28012G17KT 9SM CLR 16/M03 A3002 RMK SLP178 DENSITY ALT 2900FT
11:00
V
15 °C 14 km - 290°   290° 11 kt METAR CZVL 221700Z AUTO 29011KT 240V310 9SM CLR 15/M04 A3003 RMK SLP184 DENSITY ALT 2700FT
10:00
V
14 °C 14 km - 290°   290° 11 kt METAR CZVL 221600Z AUTO 29011KT 250V310 9SM CLR 14/M04 A3004 RMK SLP186 DENSITY ALT 2500FT
09:00
V
12 °C 14 km - 240°   240° 4 kt METAR CZVL 221500Z AUTO 24004KT 9SM FEW110 12/M03 A3006 RMK SLP190 DENSITY ALT 2300FT
08:00
V
9 °C 14 km - Var   Var 2 kt METAR CZVL 221400Z AUTO VRB02KT 9SM CLR 09/M01 A3007 RMK SLP195
07:00
V
7 °C 14 km - Var   Var 2 kt METAR CZVL 221300Z AUTO VRB02KT 9SM CLR 07/M03 A3007 RMK SLP197
06:00
V
4 °C 14 km - 240°   240° 4 kt METAR CZVL 221200Z AUTO 24004KT 9SM CLR 04/M03 A3007 RMK SLP201
05:00
V
5 °C 14 km - 240°   240° 5 kt METAR CZVL 221100Z AUTO 24005KT 9SM CLR 05/M03 A3008 RMK SLP202
04:00
V
4 °C 14 km - 210°   210° 9 kt METAR CZVL 221000Z AUTO 21009KT 9SM CLR 04/M03 A3009 RMK SLP207
03:00
V
5 °C 14 km - 210°   210° 10 kt METAR CZVL 220900Z AUTO 21010KT 9SM CLR 05/M04 A3010 RMK SLP211
02:00
V
6 °C 14 km - 210°   210° 9 kt METAR CZVL 220800Z AUTO 21009KT 9SM CLR 06/M04 A3011 RMK SLP213
01:00
V
7 °C 14 km - 210°   210° 9 kt METAR CZVL 220700Z AUTO 21009KT 9SM CLR 07/M05 A3012 RMK SLP216
00:00
V
6 °C 14 km - 210°   210° 8 kt METAR CZVL 220600Z AUTO 21008KT 9SM CLR 06/M05 A3013 RMK SLP222

21 mei 2022

Tijd Code Weer Temp. Zicht Wolken Wind METAR/SPECI
23:00
V
7 °C 14 km - 200°   200° 5 kt METAR CZVL 220500Z AUTO 20005KT 9SM CLR 07/M05 A3014 RMK SLP224
22:00
V
9 °C 14 km - 190°   190° 3 kt METAR CZVL 220400Z AUTO 19003KT 9SM CLR 09/M06 A3015 RMK SLP227
21:00
V
13 °C 14 km - 220°   220° 3 kt METAR CZVL 220300Z AUTO 22003KT 9SM CLR 13/M07 A3015 RMK SLP225 DENSITY ALT 2300FT
20:00
V
14 °C 14 km - 230°   230° 6 kt METAR CZVL 220200Z AUTO 23006KT 9SM CLR 14/M08 A3015 RMK SLP228 DENSITY ALT 2400FT
19:00
V
14 °C 14 km - 270°   270° 7 kt METAR CZVL 220100Z AUTO 27007KT 210V340 9SM CLR 14/M08 A3016 RMK SLP235 DENSITY ALT 2500FT
18:00
V
14 °C 14 km - 270°   270° 6 kt METAR CZVL 220000Z AUTO 27006KT 220V300 9SM CLR 14/M08 A3018 RMK SLP242 DENSITY ALT 2400FT
17:00
V
14 °C 14 km - Var   Var 6 kt METAR CZVL 212300Z AUTO VRB06KT 9SM CLR 14/M08 A3019 RMK SLP247 DENSITY ALT 2400FT
16:00
V
14 °C 14 km - Var   Var 7 kt METAR CZVL 212200Z AUTO VRB07KT 9SM CLR 14/M09 A3021 RMK SLP253 DENSITY ALT 2300FT
15:00
V
13 °C 14 km - Var   Var 3 kt METAR CZVL 212100Z AUTO VRB03KT 9SM CLR 13/M06 A3022 RMK SLP257 DENSITY ALT 2300FT
14:08
V
13 °C 14 km - Var   Var 11 kt METAR CZVL 212008Z AUTO VRB11KT 9SM CLR 13/M07 A3023 RMK SLP248 DENSITY ALT 2300FT
13:00
V
13 °C 14 km - 060°   060° 7 kt METAR CZVL 211900Z AUTO 06007KT 9SM CLR 13/M07 A3025 RMK SLP265
12:00
V
12 °C 14 km - 310°   310° 5 kt METAR CZVL 211800Z AUTO 31005KT 300V010 9SM CLR 12/M10 A3026 RMK SLP271
11:00
V
11 °C 14 km - Var   Var 5 kt METAR CZVL 211700Z AUTO VRB05KT 9SM CLR 11/M08 A3027 RMK SLP274
10:00
V
9 °C 14 km - Var   Var 2 kt METAR CZVL 211600Z AUTO VRB02KT 9SM CLR 09/M07 A3028 RMK SLP276
09:00
V
7 °C 14 km - 310°   310° 3 kt METAR CZVL 211500Z AUTO 31003KT 290V360 9SM CLR 07/M05 A3029 RMK SLP278
Oudere gegevens

Installeer onze app

Gemakkelijke toegang tot al het luchtvaartweer op je mobiele telefoon en tablet.
Met veel functies die niet op de website beschikbaar zijn, zoals offline ondersteuning en een persoonlijke lijst van vliegvelden.

Met cookies volgen wij en derde partijen jouw internetgedrag binnen onze site. Als je verdergaat gaan we ervan uit dat je dit goedvindt. Meer info